createdAt,value
2024-04-19T00:00:18.230Z,30.020000
2024-04-19T00:05:18.202Z,30.020000
2024-04-19T00:10:18.421Z,30.020000
2024-04-19T00:15:24.502Z,30.024000
2024-04-19T00:20:18.275Z,30.024000
2024-04-19T00:25:18.179Z,30.024000
2024-04-19T00:30:24.453Z,30.035000
2024-04-19T00:35:24.513Z,30.035000
2024-04-19T00:40:18.285Z,30.035000
2024-04-19T00:45:16.366Z,30.032000
2024-04-19T00:50:16.338Z,30.032000
2024-04-19T00:55:24.629Z,30.032000
2024-04-19T01:00:18.361Z,30.045000
2024-04-19T01:05:24.502Z,30.045000
2024-04-19T01:10:18.351Z,30.045000
2024-04-19T01:15:24.566Z,30.056000
2024-04-19T01:20:24.630Z,30.056000
2024-04-19T01:25:24.511Z,30.056000
2024-04-19T01:30:24.503Z,30.056000
2024-04-19T01:35:24.629Z,30.056000
2024-04-19T01:40:16.409Z,30.056000
2024-04-19T01:45:24.654Z,30.052000
2024-04-19T01:50:18.455Z,30.052000
2024-04-19T01:55:24.597Z,30.052000
2024-04-19T02:00:24.697Z,30.048000
2024-04-19T02:05:24.675Z,30.048000
2024-04-19T02:10:24.714Z,30.048000
2024-04-19T02:15:24.549Z,30.046000
2024-04-19T02:20:18.532Z,30.046000
2024-04-19T02:25:18.455Z,30.046000
2024-04-19T02:30:16.532Z,30.050000
2024-04-19T02:35:16.547Z,30.050000
2024-04-19T02:40:18.704Z,30.050000
2024-04-19T02:45:24.734Z,30.054000
2024-04-19T02:50:24.714Z,30.054000
2024-04-19T02:55:18.548Z,30.054000
2024-04-19T03:00:18.437Z,30.052000
2024-04-19T03:05:18.499Z,30.052000
2024-04-19T03:10:24.808Z,30.052000
2024-04-19T03:15:24.707Z,30.046000
2024-04-19T03:20:18.475Z,30.046000
2024-04-19T03:25:16.606Z,30.046000
2024-04-19T03:30:16.533Z,30.048000
2024-04-19T03:35:24.800Z,30.048000
2024-04-19T03:40:24.830Z,30.048000
2024-04-19T03:45:24.772Z,30.042000
2024-04-19T03:50:18.601Z,30.042000
2024-04-19T03:55:24.828Z,30.042000
2024-04-19T04:00:17.909Z,30.037000
2024-04-19T04:05:24.183Z,30.037000
2024-04-19T04:10:17.921Z,30.037000
2024-04-19T04:15:24.057Z,30.032000
2024-04-19T04:20:17.933Z,30.032000
2024-04-19T04:25:24.323Z,30.032000
2024-04-19T04:30:24.191Z,30.032000
2024-04-19T04:35:15.938Z,30.032000
2024-04-19T04:40:16.131Z,30.032000
2024-04-19T04:45:17.896Z,30.034000
2024-04-19T04:50:24.373Z,30.034000
2024-04-19T04:55:17.917Z,30.034000
2024-04-19T05:00:24.074Z,30.035000
2024-04-19T05:05:24.144Z,30.035000
2024-04-19T05:10:24.270Z,30.035000
2024-04-19T05:15:17.966Z,30.033000
2024-04-19T05:20:18.041Z,30.033000
2024-04-19T05:25:15.989Z,30.033000
2024-04-19T05:30:16.095Z,30.030000
2024-04-19T05:35:24.186Z,30.030000
2024-04-19T05:40:24.228Z,30.030000
2024-04-19T05:45:24.265Z,30.029000
2024-04-19T05:50:24.225Z,30.029000
2024-04-19T05:55:24.322Z,30.029000
2024-04-19T06:00:24.242Z,30.031000
2024-04-19T06:05:24.255Z,30.031000
2024-04-19T06:10:18.033Z,30.031000
2024-04-19T06:15:24.353Z,30.023000
2024-04-19T06:20:16.049Z,30.023000
2024-04-19T06:25:16.111Z,30.023000
2024-04-19T06:30:24.315Z,30.026000
2024-04-19T06:35:24.226Z,30.026000
2024-04-19T06:40:24.404Z,30.026000
2024-04-19T06:45:24.347Z,30.022000
2024-04-19T06:50:18.104Z,30.022000
2024-04-19T06:55:18.111Z,30.022000
2024-04-19T07:00:41.418Z,30.021000
2024-04-19T07:05:24.386Z,30.021000
2024-04-19T07:10:18.020Z,30.021000
2024-04-19T07:15:16.162Z,30.020000
2024-04-19T07:20:18.194Z,30.020000
2024-04-19T07:25:24.360Z,30.020000
2024-04-19T07:30:18.218Z,30.020000
2024-04-19T07:35:24.438Z,30.020000
2024-04-19T07:40:18.337Z,30.020000
2024-04-19T07:45:24.470Z,30.025000
2024-04-19T07:50:18.276Z,30.025000
2024-04-19T07:55:24.487Z,30.025000
2024-04-19T08:00:24.434Z,30.025000
2024-04-19T08:05:16.362Z,30.025000
2024-04-19T08:10:16.124Z,30.025000
2024-04-19T08:15:18.429Z,30.028000
2024-04-19T08:20:24.542Z,30.028000
2024-04-19T08:25:24.457Z,30.028000
2024-04-19T08:30:18.333Z,30.031000
2024-04-19T08:35:24.564Z,30.031000
2024-04-19T08:40:24.547Z,30.031000
2024-04-19T08:45:24.825Z,30.033000
2024-04-19T08:50:24.573Z,30.033000
2024-04-19T08:55:18.306Z,30.033000
2024-04-19T09:00:18.105Z,30.027000
2024-04-19T09:05:16.450Z,30.027000
2024-04-19T09:10:24.594Z,30.027000
2024-04-19T09:15:18.313Z,30.022000
2024-04-19T09:20:24.689Z,30.022000
2024-04-19T09:25:24.640Z,30.022000
2024-04-19T09:30:18.443Z,30.019000
2024-04-19T09:35:26.310Z,30.019000
2024-04-19T09:40:25.700Z,30.019000
2024-04-19T09:45:18.441Z,30.013000
2024-04-19T09:50:24.610Z,30.013000
2024-04-19T09:55:16.492Z,30.013000
2024-04-19T10:00:26.180Z,30.012000
2024-04-19T10:05:18.475Z,30.012000
2024-04-19T10:10:24.621Z,30.012000
2024-04-19T10:15:24.725Z,30.017000
2024-04-19T10:20:24.720Z,30.017000
2024-04-19T10:25:18.629Z,30.017000
2024-04-19T10:30:30.561Z,30.022000
2024-04-19T10:35:24.747Z,30.022000
2024-04-19T10:40:18.575Z,30.022000
2024-04-19T10:45:16.609Z,30.030000
2024-04-19T10:50:16.455Z,30.030000
2024-04-19T10:55:24.896Z,30.030000
2024-04-19T11:00:18.633Z,30.034000
2024-04-19T11:05:24.808Z,30.034000
2024-04-19T11:10:18.569Z,30.034000
2024-04-19T11:15:24.870Z,30.048000
2024-04-19T11:20:18.611Z,30.048000
2024-04-19T11:25:18.655Z,30.048000
2024-04-19T11:30:18.662Z,30.049000
2024-04-19T11:35:18.840Z,30.049000
2024-04-19T11:40:16.750Z,30.049000
2024-04-19T11:45:16.689Z,30.045000
2024-04-19T11:50:18.605Z,30.045000
2024-04-19T11:55:18.672Z,30.045000
2024-04-19T12:00:25.143Z,30.038000
2024-04-19T12:05:18.791Z,30.038000
2024-04-19T12:10:25.196Z,30.038000
2024-04-19T12:16:05.066Z,30.032000
2024-04-19T12:16:40.169Z,30.032000
2024-04-19T12:20:29.293Z,30.032000
2024-04-19T12:25:19.234Z,30.032000
2024-04-19T12:30:18.873Z,30.022000
2024-04-19T12:35:16.787Z,30.022000
2024-04-19T12:40:24.967Z,30.022000
2024-04-19T12:45:18.932Z,30.018000
2024-04-19T12:50:18.786Z,30.018000
2024-04-19T12:55:18.849Z,30.018000
2024-04-19T13:00:25.093Z,30.014000
2024-04-19T13:05:25.024Z,30.014000
2024-04-19T13:10:24.986Z,30.014000
2024-04-19T13:15:18.693Z,30.007000
2024-04-19T13:20:24.965Z,30.007000
2024-04-19T13:25:16.824Z,30.007000
2024-04-19T13:30:16.804Z,29.996000
2024-04-19T13:35:18.830Z,29.996000
2024-04-19T13:40:18.786Z,29.996000
2024-04-19T13:45:18.844Z,29.988000
2024-04-19T13:50:18.828Z,29.988000
2024-04-19T13:55:25.110Z,29.988000
2024-04-19T14:00:18.963Z,29.984000
2024-04-19T14:05:18.850Z,29.984000
2024-04-19T14:10:25.271Z,29.984000
2024-04-19T14:15:25.161Z,29.986000
2024-04-19T14:20:17.027Z,29.986000
2024-04-19T14:25:16.978Z,29.986000
2024-04-19T14:30:18.948Z,29.981000
2024-04-19T14:35:19.084Z,29.981000
2024-04-19T14:40:18.864Z,29.981000
2024-04-19T14:45:25.228Z,29.973000
2024-04-19T14:50:25.122Z,29.973000
2024-04-19T14:55:25.128Z,29.973000
2024-04-19T15:00:18.926Z,29.967000
2024-04-19T15:05:25.096Z,29.967000
2024-04-19T15:10:17.038Z,29.967000
2024-04-19T15:15:16.941Z,29.963000
2024-04-19T15:20:25.361Z,29.963000
2024-04-19T15:25:25.242Z,29.963000
2024-04-19T15:30:18.988Z,29.955000
2024-04-19T15:35:25.204Z,29.955000
2024-04-19T15:40:19.042Z,29.955000
2024-04-19T15:45:25.192Z,29.955000
2024-04-19T15:50:19.003Z,29.955000
2024-04-19T15:55:18.958Z,29.955000
2024-04-19T16:00:25.380Z,29.956000
2024-04-19T16:05:17.038Z,29.956000
2024-04-19T16:10:16.977Z,29.956000
2024-04-19T16:15:19.076Z,29.953000
2024-04-19T16:20:25.276Z,29.953000
2024-04-19T16:25:19.170Z,29.953000
2024-04-19T16:30:25.288Z,29.956000
2024-04-19T16:35:19.019Z,29.956000
2024-04-19T16:40:25.363Z,29.956000
2024-04-19T16:45:19.030Z,29.964000
2024-04-19T16:50:19.103Z,29.964000
2024-04-19T16:55:19.078Z,29.964000
2024-04-19T17:00:17.289Z,29.959000
2024-04-19T17:05:19.281Z,29.959000
2024-04-19T17:10:19.124Z,29.959000
2024-04-19T17:15:19.136Z,29.966000
2024-04-19T17:20:19.194Z,29.966000
2024-04-19T17:25:19.114Z,29.966000
2024-04-19T17:30:19.304Z,29.974000
2024-04-19T17:35:19.062Z,29.974000
2024-04-19T17:40:25.416Z,29.974000
2024-04-19T17:45:25.565Z,29.975000
2024-04-19T17:50:17.229Z,29.975000
2024-04-19T17:55:17.248Z,29.975000
2024-04-19T18:00:25.486Z,29.973000
2024-04-19T18:05:18.255Z,29.973000
2024-04-19T18:10:16.210Z,29.973000
2024-04-19T18:15:16.169Z,29.974000
2024-04-19T18:20:24.556Z,29.974000
2024-04-19T18:25:24.423Z,29.974000
2024-04-19T18:30:24.425Z,29.974000
2024-04-19T18:35:24.354Z,29.974000
2024-04-19T18:40:24.492Z,29.974000
2024-04-19T18:45:24.481Z,29.982000
2024-04-19T18:50:24.479Z,29.982000
2024-04-19T18:55:18.276Z,29.982000
2024-04-19T19:00:24.528Z,29.974000
2024-04-19T19:05:16.371Z,29.974000
2024-04-19T19:10:16.622Z,29.974000
2024-04-19T19:15:24.518Z,29.974000
2024-04-19T19:20:24.382Z,29.974000
2024-04-19T19:25:24.541Z,29.974000
2024-04-19T19:30:24.520Z,29.972000
2024-04-19T19:35:24.465Z,29.972000
2024-04-19T19:40:18.305Z,29.972000
2024-04-19T19:45:24.615Z,29.964000
2024-04-19T19:50:24.511Z,29.964000
2024-04-19T19:55:16.364Z,29.964000
2024-04-19T20:00:16.375Z,29.960000
2024-04-19T20:05:24.675Z,29.960000
2024-04-19T20:10:24.607Z,29.960000
2024-04-19T20:15:21.704Z,29.956000
2024-04-19T20:20:24.594Z,29.956000
2024-04-19T20:25:18.367Z,29.956000
2024-04-19T20:30:18.283Z,29.948000
2024-04-19T20:35:18.319Z,29.948000
2024-04-19T20:40:24.567Z,29.948000
2024-04-19T20:45:24.649Z,29.932000
2024-04-19T20:50:16.485Z,29.932000
2024-04-19T20:55:16.323Z,29.932000
2024-04-19T21:00:18.438Z,29.929000
2024-04-19T21:05:18.411Z,29.929000
2024-04-19T21:10:18.394Z,29.929000
2024-04-19T21:15:24.765Z,29.940000
2024-04-19T21:20:18.518Z,29.940000
2024-04-19T21:25:18.501Z,29.940000
2024-04-19T21:30:24.834Z,29.941000
2024-04-19T21:35:24.626Z,29.941000
2024-04-19T21:40:18.488Z,29.941000
2024-04-19T21:45:16.463Z,29.930000
2024-04-19T21:50:24.733Z,29.930000
2024-04-19T21:55:18.482Z,29.930000
2024-04-19T22:00:24.778Z,29.927000
2024-04-19T22:05:18.523Z,29.927000
2024-04-19T22:10:24.600Z,29.927000
2024-04-19T22:15:18.518Z,29.930000
2024-04-19T22:20:18.764Z,29.930000
2024-04-19T22:25:24.756Z,29.930000
2024-04-19T22:30:18.535Z,29.929000
2024-04-19T22:35:16.528Z,29.929000
2024-04-19T22:40:16.488Z,29.929000
2024-04-19T22:45:24.765Z,29.925000
2024-04-19T22:50:24.746Z,29.925000
2024-04-19T22:55:24.753Z,29.925000
2024-04-19T23:00:24.831Z,29.922000
2024-04-19T23:05:18.605Z,29.922000
2024-04-19T23:10:24.897Z,29.922000
2024-04-19T23:15:18.672Z,29.921000
2024-04-19T23:20:24.874Z,29.921000
2024-04-19T23:25:24.789Z,29.921000
2024-04-19T23:30:16.616Z,29.913000
2024-04-19T23:35:16.651Z,29.913000
2024-04-19T23:40:24.862Z,29.913000
2024-04-19T23:45:24.780Z,29.915000
2024-04-19T23:50:18.694Z,29.915000
2024-04-19T23:55:18.709Z,29.915000
